Terminal Aerodrome Forecast
Issued by NWS

Home | Current Version | Previous Version | Text Only | Print | Product List | Glossary Off
Versions: 1 2 3 4 5 6 7 8 9 10 11 12 13 14 15 16

000
FTUS43 KICT 282337
TAFRSL
TAF
KRSL 282337Z 0100/0124 16008KT P6SM OVC018
     FM010600 VRB03KT P6SM OVC030
      TEMPO 0108/0112 3SM -SN OVC012
     FM011500 34006KT P6SM SCT020 BKN050=

USA.gov is the U.S. government's official web portal to all federal, state and local government web resources and services.